Time;durP1;ratioP1;P1;durP2;ratioP2;P2;SDS_P1;SDS_P2;PMS_P1;PMS_P2;Temp;Humidity;BMP_temperature;BMP_pressure;BME280_temperature;BME280_humidity;BME280_pressure;Samples;Min_cycle;Max_cycle;Signal;HPM_P1;HPM_P2
2022/05/15 00:02:11;;;;;;;9.55;7.68;;;;;;;;;;7331880;19;154176;-17
2022/05/15 00:04:42;;;;;;;12.10;8.27;;;;;;;;;;7331437;19;153522;-17
2022/05/15 00:07:16;;;;;;;9.73;7.95;;;;;;;;;;7331132;19;161805;-17
2022/05/15 00:09:48;;;;;;;9.30;7.45;;;;;;;;;;7330931;19;162406;-17
2022/05/15 00:12:20;;;;;;;10.00;8.15;;;;;;;;;;7331434;19;154032;-18
2022/05/15 00:14:52;;;;;;;11.73;8.10;;;;;;;;;;7330081;19;153593;-18
2022/05/15 00:17:23;;;;;;;9.85;7.32;;;;;;;;;;7330889;19;162022;-18
2022/05/15 00:19:54;;;;;;;9.00;7.43;;;;;;;;;;7330570;19;162539;-17
2022/05/15 00:22:28;;;;;;;8.93;7.60;;;;;;;;;;7330999;19;154178;-19
2022/05/15 00:25:00;;;;;;;10.13;7.68;;;;;;;;;;7331006;19;153605;-18
2022/05/15 00:27:31;;;;;;;9.05;6.93;;;;;;;;;;7330552;19;162358;-18
2022/05/15 00:30:02;;;;;;;8.98;7.63;;;;;;;;;;7330481;19;162355;-18
2022/05/15 00:32:34;;;;;;;8.98;7.03;;;;;;;;;;7328915;19;154246;-18
2022/05/15 00:35:08;;;;;;;10.35;7.55;;;;;;;;;;7330823;19;153539;-18
2022/05/15 00:37:42;;;;;;;;;;;;;;;;;;7329622;19;162173;-18
2022/05/15 00:40:18;;;;;;;9.43;7.60;;;;;;;;;;7330385;19;162383;-18
2022/05/15 00:42:50;;;;;;;9.07;7.10;;;;;;;;;;7330430;19;154158;-17
2022/05/15 00:45:24;;;;;;;7.75;6.72;;;;;;;;;;7329953;19;153603;-19
2022/05/15 00:47:55;;;;;;;10.00;7.68;;;;;;;;;;7330019;19;162155;-19
2022/05/15 00:50:36;;;;;;;8.20;6.75;;;;;;;;;;7328732;19;162366;-24
2022/05/15 00:53:13;;;;;;;8.63;6.63;;;;;;;;;;7330263;19;154160;-24
2022/05/15 00:55:47;;;;;;;9.32;6.82;;;;;;;;;;7329874;19;153547;-26
2022/05/15 00:58:25;;;;;;;9.82;6.28;;;;;;;;;;7334442;19;161910;-19
2022/05/15 01:00:56;;;;;;;6.50;5.38;;;;;;;;;;7327445;19;162499;-18
2022/05/15 01:03:28;;;;;;;7.63;6.10;;;;;;;;;;7325666;19;154490;-18
2022/05/15 01:05:59;;;;;;;8.43;6.03;;;;;;;;;;7328841;19;153383;-20
2022/05/15 01:08:35;;;;;;;7.05;5.75;;;;;;;;;;7328348;19;162017;-18
2022/05/15 01:11:11;;;;;;;7.82;5.65;;;;;;;;;;7328412;19;163000;-19
2022/05/15 01:13:46;;;;;;;7.43;5.47;;;;;;;;;;7328388;19;154726;-19
2022/05/15 01:16:21;;;;;;;6.75;4.88;;;;;;;;;;7328630;19;153625;-19
2022/05/15 01:18:56;;;;;;;6.40;5.68;;;;;;;;;;7329381;19;162387;-19
2022/05/15 01:21:35;;;;;;;8.65;5.25;;;;;;;;;;7328015;19;162806;-18
2022/05/15 01:24:09;;;;;;;8.48;4.95;;;;;;;;;;7327009;19;154320;-18
2022/05/15 01:26:41;;;;;;;6.55;4.85;;;;;;;;;;7329421;19;153607;-18
2022/05/15 01:29:16;;;;;;;7.32;5.25;;;;;;;;;;7331557;19;161871;-18
2022/05/15 01:31:52;;;;;;;6.73;4.90;;;;;;;;;;7329119;19;162327;-19
2022/05/15 01:34:23;;;;;;;6.25;5.07;;;;;;;;;;7328024;19;154225;-18
2022/05/15 01:36:59;;;;;;;;;;;;;;;;;;7328672;19;153687;-19
2022/05/15 01:39:32;;;;;;;4.85;4.18;;;;;;;;;;7327773;19;162622;-19
2022/05/15 01:42:05;;;;;;;7.13;4.85;;;;;;;;;;7327428;19;162594;-17
2022/05/15 01:44:37;;;;;;;5.90;5.32;;;;;;;;;;7332781;19;154252;-18
2022/05/15 01:47:09;;;;;;;5.28;4.63;;;;;;;;;;7332350;19;153526;-17
2022/05/15 01:49:42;;;;;;;6.28;4.63;;;;;;;;;;7334201;19;162157;-18
2022/05/15 01:52:17;;;;;;;5.37;4.43;;;;;;;;;;7334151;19;162440;-18
2022/05/15 01:54:48;;;;;;;6.95;5.32;;;;;;;;;;7335617;19;154102;-17
2022/05/15 01:57:21;;;;;;;5.88;4.43;;;;;;;;;;7334033;19;153535;-18
2022/05/15 01:59:52;;;;;;;7.72;5.32;;;;;;;;;;7333729;19;161927;-17
2022/05/15 02:02:24;;;;;;;5.90;5.30;;;;;;;;;;7333850;19;162562;-18
2022/05/15 02:04:55;;;;;;;6.18;4.75;;;;;;;;;;7334259;19;154147;-17
2022/05/15 02:07:29;;;;;;;8.00;4.80;;;;;;;;;;7334017;19;153742;-22
2022/05/15 02:10:01;;;;;;;5.75;5.15;;;;;;;;;;7333569;19;162040;-17
2022/05/15 02:12:35;;;;;;;6.17;5.00;;;;;;;;;;7333564;19;162764;-18
2022/05/15 02:15:08;;;;;;;5.80;4.75;;;;;;;;;;7333909;19;153859;-17
2022/05/15 02:17:40;;;;;;;7.40;4.68;;;;;;;;;;7333684;19;153606;-28
2022/05/15 02:20:15;;;;;;;4.55;4.03;;;;;;;;;;7330915;19;162100;-19
2022/05/15 02:22:50;;;;;;;6.82;4.88;;;;;;;;;;7331253;19;162438;-18
2022/05/15 02:25:22;;;;;;;4.82;4.18;;;;;;;;;;7330093;19;154241;-18
2022/05/15 02:27:53;;;;;;;4.60;4.10;;;;;;;;;;7331629;19;153735;-17
2022/05/15 02:30:25;;;;;;;5.38;4.50;;;;;;;;;;7331165;19;162059;-18
2022/05/15 02:32:59;;;;;;;5.43;4.72;;;;;;;;;;7330916;19;162622;-17
2022/05/15 02:35:33;;;;;;;6.60;5.30;;;;;;;;;;7331474;19;154562;-17
2022/05/15 02:38:08;;;;;;;5.00;4.50;;;;;;;;;;7333713;19;153791;-19
2022/05/15 02:40:40;;;;;;;5.35;4.30;;;;;;;;;;7333907;19;161839;-18
2022/05/15 02:43:12;;;;;;;4.65;4.25;;;;;;;;;;7333997;19;162462;-19
2022/05/15 02:45:44;;;;;;;5.40;4.53;;;;;;;;;;7332844;19;154124;-18
2022/05/15 02:51:08;;;;;;;4.78;4.28;;;;;;;;;;7333638;19;161971;-18
2022/05/15 02:53:46;;;;;;;4.70;4.30;;;;;;;;;;7333292;19;162636;-19
2022/05/15 02:56:25;;;;;;;5.43;4.35;;;;;;;;;;7333119;19;154131;-18
2022/05/15 02:58:56;;;;;;;5.38;4.20;;;;;;;;;;7335279;19;153934;-19
2022/05/15 03:01:29;;;;;;;4.70;4.10;;;;;;;;;;7335527;19;162245;-19
2022/05/15 03:04:00;;;;;;;6.30;5.30;;;;;;;;;;7336449;19;162553;-19
2022/05/15 03:06:32;;;;;;;5.28;4.78;;;;;;;;;;7334350;19;154289;-19
2022/05/15 03:09:06;;;;;;;5.07;4.50;;;;;;;;;;7337020;19;153576;-19
2022/05/15 03:11:38;;;;;;;5.80;4.97;;;;;;;;;;7336117;19;162081;-19
2022/05/15 03:14:09;;;;;;;5.30;4.27;;;;;;;;;;7335131;19;162681;-18
2022/05/15 03:16:41;;;;;;;5.25;4.07;;;;;;;;;;7336357;19;154061;-19
2022/05/15 03:19:12;;;;;;;5.38;4.35;;;;;;;;;;7335514;19;153623;-19
2022/05/15 03:21:44;;;;;;;4.78;4.22;;;;;;;;;;7334952;19;161851;-18
2022/05/15 03:24:17;;;;;;;5.60;4.40;;;;;;;;;;7334250;19;162463;-19
2022/05/15 03:26:51;;;;;;;4.78;4.38;;;;;;;;;;7332308;19;154126;-18
2022/05/15 03:29:23;;;;;;;5.72;4.68;;;;;;;;;;7334624;19;153874;-19
2022/05/15 03:31:54;;;;;;;5.65;4.57;;;;;;;;;;7335855;19;161907;-19
2022/05/15 03:34:26;;;;;;;4.60;4.03;;;;;;;;;;7334479;19;162518;-19
2022/05/15 03:37:00;;;;;;;5.22;4.72;;;;;;;;;;7335836;19;154270;-18
2022/05/15 03:39:35;;;;;;;5.37;4.57;;;;;;;;;;7335069;19;153600;-18
2022/05/15 03:42:07;;;;;;;5.97;4.63;;;;;;;;;;7335463;19;161905;-26
2022/05/15 03:44:40;;;;;;;4.35;3.95;;;;;;;;;;7334186;19;162372;-20
2022/05/15 03:47:11;;;;;;;5.60;4.53;;;;;;;;;;7332947;19;154073;-20
2022/05/15 03:49:43;;;;;;;4.32;3.88;;;;;;;;;;7333745;19;154246;-19
2022/05/15 03:52:16;;;;;;;5.13;4.63;;;;;;;;;;7335097;19;161912;-19
2022/05/15 03:54:50;;;;;;;5.97;4.25;;;;;;;;;;7333576;19;162522;-19
2022/05/15 03:57:22;;;;;;;4.60;4.07;;;;;;;;;;7334069;19;154199;-22
2022/05/15 03:59:54;;;;;;;4.40;4.00;;;;;;;;;;7334591;19;153796;-18
2022/05/15 04:02:25;;;;;;;4.35;3.95;;;;;;;;;;7334489;19;162227;-18
2022/05/15 04:04:56;;;;;;;4.93;4.38;;;;;;;;;;7333954;19;162683;-19
2022/05/15 04:07:29;;;;;;;4.10;3.80;;;;;;;;;;7330051;19;154236;-19
2022/05/15 04:10:03;;;;;;;4.90;4.05;;;;;;;;;;7333516;19;153559;-18
2022/05/15 04:12:34;;;;;;;4.63;4.05;;;;;;;;;;7334353;19;161842;-18
2022/05/15 04:15:06;;;;;;;3.92;3.58;;;;;;;;;;7334351;19;162399;-18
2022/05/15 04:17:43;;;;;;;5.00;3.93;;;;;;;;;;7334124;19;154225;-19
2022/05/15 04:20:16;;;;;;;4.93;4.07;;;;;;;;;;7332979;19;153889;-19
2022/05/15 04:22:48;;;;;;;4.00;3.53;;;;;;;;;;7332429;19;162062;-19
2022/05/15 04:25:24;;;;;;;4.20;3.80;;;;;;;;;;7333565;19;162498;-19
2022/05/15 04:27:55;;;;;;;4.90;3.65;;;;;;;;;;7333834;19;154716;-18
2022/05/15 04:30:29;;;;;;;4.57;3.75;;;;;;;;;;7334056;19;153686;-18
2022/05/15 04:33:00;;;;;;;3.80;3.47;;;;;;;;;;7333690;19;162104;-18
2022/05/15 04:35:31;;;;;;;3.60;3.30;;;;;;;;;;7333698;19;162471;-18
2022/05/15 04:38:02;;;;;;;3.88;3.58;;;;;;;;;;7333737;19;154129;-18
2022/05/15 04:40:36;;;;;;;4.78;3.85;;;;;;;;;;7333149;19;153679;-18
2022/05/15 04:43:08;;;;;;;5.22;4.47;;;;;;;;;;7333263;19;162081;-18
2022/05/15 04:45:39;;;;;;;4.20;3.85;;;;;;;;;;7332228;19;162587;-18
2022/05/15 04:48:12;;;;;;;4.15;3.72;;;;;;;;;;7333659;19;154230;-18
2022/05/15 04:50:43;;;;;;;;;;;;;;;;;;7333760;19;153498;-18
2022/05/15 04:53:14;;;;;;;5.03;4.00;;;;;;;;;;7333448;19;161952;-19
2022/05/15 04:55:48;;;;;;;3.85;3.42;;;;;;;;;;7333269;19;162553;-18
2022/05/15 04:58:19;;;;;;;4.15;3.75;;;;;;;;;;7330483;19;154245;-18
2022/05/15 05:00:51;;;;;;;3.92;3.63;;;;;;;;;;7330281;19;153559;-18
2022/05/15 05:03:22;;;;;;;3.95;3.58;;;;;;;;;;7329834;19;161877;-18
2022/05/15 05:05:54;;;;;;;3.85;3.55;;;;;;;;;;7329216;19;162402;-17
2022/05/15 05:08:25;;;;;;;4.03;3.30;;;;;;;;;;7329978;19;154128;-18
2022/05/15 05:10:59;;;;;;;4.15;3.53;;;;;;;;;;7329864;19;153664;-18
2022/05/15 05:13:30;;;;;;;4.18;3.78;;;;;;;;;;7328160;19;161802;-18
2022/05/15 05:16:03;;;;;;;4.13;3.72;;;;;;;;;;7329370;19;162662;-18
2022/05/15 05:18:34;;;;;;;4.32;3.92;;;;;;;;;;7326742;19;154136;-18
2022/05/15 05:21:05;;;;;;;3.80;3.40;;;;;;;;;;7329806;19;153519;-18
2022/05/15 05:23:37;;;;;;;4.35;3.95;;;;;;;;;;7329017;19;161857;-18
2022/05/15 05:26:11;;;;;;;3.65;3.15;;;;;;;;;;7331190;19;162374;-18
2022/05/15 05:28:42;;;;;;;3.50;3.08;;;;;;;;;;7328149;19;154107;-18
2022/05/15 05:31:13;;;;;;;3.55;3.25;;;;;;;;;;7328105;19;153549;-18
2022/05/15 05:33:45;;;;;;;3.85;3.50;;;;;;;;;;7329431;19;162120;-18
2022/05/15 05:36:19;;;;;;;4.32;3.45;;;;;;;;;;7328702;19;162419;-18
2022/05/15 05:38:50;;;;;;;3.80;3.50;;;;;;;;;;7329049;19;154094;-18
2022/05/15 05:41:24;;;;;;;3.63;3.33;;;;;;;;;;7329095;19;153677;-18
2022/05/15 05:43:55;;;;;;;3.85;3.50;;;;;;;;;;7327328;19;162052;-17
2022/05/15 05:46:27;;;;;;;4.00;3.50;;;;;;;;;;7326178;19;162552;-18
2022/05/15 05:49:00;;;;;;;4.00;3.00;;;;;;;;;;7328717;19;154154;-18
2022/05/15 05:51:31;;;;;;;3.63;3.08;;;;;;;;;;7328771;19;153699;-19
2022/05/15 05:54:03;;;;;;;4.32;3.70;;;;;;;;;;7328171;19;161856;-18
2022/05/15 05:56:36;;;;;;;2.90;2.70;;;;;;;;;;7326839;19;162682;-18
2022/05/15 05:59:08;;;;;;;3.55;3.25;;;;;;;;;;7327185;19;154462;-18
2022/05/15 06:01:39;;;;;;;3.90;3.50;;;;;;;;;;7327182;19;153610;-18
2022/05/15 06:06:56;;;;;;;4.00;3.42;;;;;;;;;;7325840;19;162551;-18
2022/05/15 06:09:27;;;;;;;3.20;2.90;;;;;;;;;;7327974;19;154132;-18
2022/05/15 06:12:03;;;;;;;3.22;3.00;;;;;;;;;;7327858;19;153892;-18
2022/05/15 06:14:35;;;;;;;3.33;3.03;;;;;;;;;;7327426;19;161910;-18
2022/05/15 06:17:07;;;;;;;3.70;3.38;;;;;;;;;;7327390;19;162300;-18
2022/05/15 06:19:40;;;;;;;3.58;3.30;;;;;;;;;;7327815;19;154082;-20
2022/05/15 06:22:11;;;;;;;;;;;;;;;;;;7326934;19;153534;-18
2022/05/15 06:24:42;;;;;;;3.58;3.28;;;;;;;;;;7327020;19;162149;-18
2022/05/15 06:27:19;;;;;;;3.13;2.92;;;;;;;;;;7326180;19;162456;-18
2022/05/15 06:29:51;;;;;;;3.55;3.20;;;;;;;;;;7331347;19;154332;-19
2022/05/15 06:32:22;;;;;;;3.85;3.40;;;;;;;;;;7333942;19;153531;-18
2022/05/15 06:34:53;;;;;;;3.53;3.00;;;;;;;;;;7333706;19;162008;-19
2022/05/15 06:37:25;;;;;;;2.92;2.65;;;;;;;;;;7333880;19;162676;-18
2022/05/15 06:39:58;;;;;;;2.95;2.70;;;;;;;;;;7334227;19;154112;-18
2022/05/15 06:42:32;;;;;;;3.38;3.08;;;;;;;;;;7334123;19;153497;-18
2022/05/15 06:45:08;;;;;;;2.90;2.70;;;;;;;;;;7332059;19;162354;-18
2022/05/15 06:47:39;;;;;;;3.50;3.20;;;;;;;;;;7332886;19;162489;-18
2022/05/15 06:50:12;;;;;;;3.25;2.90;;;;;;;;;;7333953;19;154364;-18
2022/05/15 06:52:43;;;;;;;3.08;2.78;;;;;;;;;;7333678;19;153715;-18
2022/05/15 06:55:18;;;;;;;3.25;2.95;;;;;;;;;;7333244;19;162024;-18
2022/05/15 06:57:50;;;;;;;4.00;3.22;;;;;;;;;;7333214;19;162395;-19
2022/05/15 07:00:25;;;;;;;3.38;2.92;;;;;;;;;;7332334;19;154190;-18
2022/05/15 07:02:56;;;;;;;3.10;2.90;;;;;;;;;;7333558;19;153614;-18
2022/05/15 07:05:31;;;;;;;2.83;2.63;;;;;;;;;;7333018;19;161920;-18
2022/05/15 07:08:02;;;;;;;3.30;3.00;;;;;;;;;;7330766;19;162677;-18
2022/05/15 07:10:33;;;;;;;4.50;3.28;;;;;;;;;;7331973;19;154162;-18
2022/05/15 07:13:07;;;;;;;3.60;3.15;;;;;;;;;;7333268;19;153792;-18
2022/05/15 07:15:39;;;;;;;3.28;2.97;;;;;;;;;;7331448;19;162005;-18
2022/05/15 07:18:11;;;;;;;3.53;3.23;;;;;;;;;;7332296;19;162145;-18
2022/05/15 07:20:42;;;;;;;2.60;2.40;;;;;;;;;;7336345;19;154025;-18
2022/05/15 07:23:13;;;;;;;3.38;3.00;;;;;;;;;;7332970;19;153524;-18
2022/05/15 07:25:44;;;;;;;3.08;2.85;;;;;;;;;;7334935;19;161878;-18
2022/05/15 07:28:18;;;;;;;3.10;2.80;;;;;;;;;;7330597;19;163110;-18
2022/05/15 07:30:50;;;;;;;3.33;2.75;;;;;;;;;;7332728;19;154159;-18
2022/05/15 07:33:22;;;;;;;3.53;2.97;;;;;;;;;;7332741;19;153543;-17
2022/05/15 07:35:54;;;;;;;2.80;2.60;;;;;;;;;;7331199;19;161848;-18
2022/05/15 07:38:26;;;;;;;2.90;2.70;;;;;;;;;;7332324;19;162390;-17
2022/05/15 07:40:57;;;;;;;3.22;2.92;;;;;;;;;;7328699;19;154129;-18
2022/05/15 07:43:31;;;;;;;3.03;2.83;;;;;;;;;;7332419;19;153709;-18
2022/05/15 07:46:02;;;;;;;3.17;2.92;;;;;;;;;;7329296;19;162017;-18
2022/05/15 07:48:34;;;;;;;2.95;2.75;;;;;;;;;;7330741;19;162513;-18
2022/05/15 07:51:05;;;;;;;3.03;2.67;;;;;;;;;;7332096;19;154235;-18
2022/05/15 07:53:36;;;;;;;2.90;2.63;;;;;;;;;;7331814;19;153803;-18
2022/05/15 07:56:09;;;;;;;2.70;2.50;;;;;;;;;;7331776;19;162076;-18
2022/05/15 07:58:49;;;;;;;3.08;2.80;;;;;;;;;;7331819;19;162556;-19
2022/05/15 08:01:21;;;;;;;2.50;2.28;;;;;;;;;;7332005;19;154127;-18
2022/05/15 08:03:52;;;;;;;3.63;3.25;;;;;;;;;;7331940;19;153502;-18
2022/05/15 08:09:09;;;;;;;2.30;2.10;;;;;;;;;;7330000;19;162426;-18
2022/05/15 08:11:44;;;;;;;3.17;2.45;;;;;;;;;;7330411;19;154099;-18
2022/05/15 08:14:20;;;;;;;8.50;3.00;;;;;;;;;;7333540;19;153810;-19
2022/05/15 08:16:52;;;;;;;2.78;2.53;;;;;;;;;;7331302;19;162795;-19
2022/05/15 08:25:42;;;;;;;2.50;2.28;;;;;;;;;;7331813;19;153515;-18
2022/05/15 08:28:13;;;;;;;3.05;2.67;;;;;;;;;;7330860;19;161713;-18
2022/05/15 08:30:47;;;;;;;2.78;2.50;;;;;;;;;;7331263;19;162767;-19
2022/05/15 08:33:19;;;;;;;4.25;2.95;;;;;;;;;;7333650;19;153890;-18
2022/05/15 08:35:51;;;;;;;4.93;2.80;;;;;;;;;;7333856;19;153612;-19
2022/05/15 08:38:23;;;;;;;4.95;3.40;;;;;;;;;;7329623;19;162769;-18
2022/05/15 08:41:03;;;;;;;3.55;2.90;;;;;;;;;;7330740;19;162597;-20
2022/05/15 08:43:46;;;;;;;5.88;3.55;;;;;;;;;;7333340;19;154250;-20
2022/05/15 08:46:34;;;;;;;3.25;2.78;;;;;;;;;;7332882;19;155588;-19
2022/05/15 08:49:11;;;;;;;6.05;3.00;;;;;;;;;;7328443;19;161961;-19
2022/05/15 08:51:52;;;;;;;7.35;3.97;;;;;;;;;;7332619;19;162442;-19
2022/05/15 08:54:24;;;;;;;8.45;3.53;;;;;;;;;;7333257;19;154440;-18
2022/05/15 08:56:59;;;;;;;6.90;3.60;;;;;;;;;;7329646;19;153586;-19
2022/05/15 08:59:34;;;;;;;4.97;2.95;;;;;;;;;;7330239;19;161817;-19
2022/05/15 09:02:14;;;;;;;6.03;3.13;;;;;;;;;;7329715;19;162668;-18
2022/05/15 09:04:45;;;;;;;7.18;3.20;;;;;;;;;;7329891;19;154387;-19
2022/05/15 09:07:31;;;;;;;4.97;3.00;;;;;;;;;;7328458;19;153573;-18
2022/05/15 09:10:16;;;;;;;8.57;3.50;;;;;;;;;;7326420;19;161886;-19
2022/05/15 09:13:02;;;;;;;5.20;3.53;;;;;;;;;;7326753;19;163133;-18
2022/05/15 09:15:33;;;;;;;5.50;3.33;;;;;;;;;;7326963;19;154344;-19
2022/05/15 09:18:21;;;;;;;6.05;3.75;;;;;;;;;;7328448;19;153537;-18
2022/05/15 09:21:03;;;;;;;4.40;3.33;;;;;;;;;;7328604;19;161886;-18
2022/05/15 09:23:37;;;;;;;4.90;3.75;;;;;;;;;;7328781;19;162315;-18
2022/05/15 09:26:17;;;;;;;3.35;2.90;;;;;;;;;;7327968;19;154168;-19
2022/05/15 09:28:52;;;;;;;5.70;3.35;;;;;;;;;;7332237;19;153275;-19
2022/05/15 09:31:27;;;;;;;4.35;3.08;;;;;;;;;;7328798;19;161839;-19
2022/05/15 09:34:05;;;;;;;4.25;3.10;;;;;;;;;;7328380;19;162274;-20
2022/05/15 09:36:45;;;;;;;4.55;3.13;;;;;;;;;;7333277;19;155455;-19
2022/05/15 09:39:26;;;;;;;6.50;3.40;;;;;;;;;;7328552;19;153517;-19
2022/05/15 09:44:46;;;;;;;4.80;3.60;;;;;;;;;;7328345;19;162790;-19
2022/05/15 09:47:27;;;;;;;5.28;3.75;;;;;;;;;;7325832;19;154260;-19
2022/05/15 09:50:02;;;;;;;4.45;3.55;;;;;;;;;;7327414;19;153529;-19
2022/05/15 09:52:36;;;;;;;4.22;3.75;;;;;;;;;;7327874;19;162055;-19
2022/05/15 09:55:18;;;;;;;4.22;3.83;;;;;;;;;;7328116;19;162412;-19
2022/05/15 09:57:58;;;;;;;9.95;3.85;;;;;;;;;;7328176;19;154018;-19
2022/05/15 10:00:32;;;;;;;3.67;3.38;;;;;;;;;;7332475;19;153587;-19
2022/05/15 10:03:19;;;;;;;3.90;3.42;;;;;;;;;;7327547;19;161836;-19
2022/05/15 10:06:06;;;;;;;5.63;3.50;;;;;;;;;;7334268;19;162316;-19
2022/05/15 10:08:38;;;;;;;4.70;3.05;;;;;;;;;;7334565;19;154079;-20
2022/05/15 10:11:14;;;;;;;4.68;3.40;;;;;;;;;;7332923;19;154008;-19
2022/05/15 10:13:50;;;;;;;6.72;3.42;;;;;;;;;;7334192;19;162031;-18
2022/05/15 10:16:25;;;;;;;3.78;3.13;;;;;;;;;;7336586;19;162119;-19
2022/05/15 10:19:00;;;;;;;4.97;3.60;;;;;;;;;;7334661;19;154159;-18
2022/05/15 10:21:40;;;;;;;5.85;3.80;;;;;;;;;;7336004;19;153358;-19
2022/05/15 10:24:16;;;;;;;5.53;3.75;;;;;;;;;;7334149;19;161826;-18
2022/05/15 10:26:55;;;;;;;4.75;3.83;;;;;;;;;;7334081;19;162527;-18
2022/05/15 10:29:36;;;;;;;4.22;3.30;;;;;;;;;;7334461;19;154106;-18
2022/05/15 10:32:14;;;;;;;4.85;3.47;;;;;;;;;;7333914;19;153534;-18
2022/05/15 10:34:46;;;;;;;5.53;3.80;;;;;;;;;;7336568;19;161856;-19
2022/05/15 10:37:43;;;;;;;6.50;3.72;;;;;;;;;;7333441;19;162360;-19
2022/05/15 10:40:27;;;;;;;4.80;3.33;;;;;;;;;;7333728;19;154061;-18
2022/05/15 10:43:09;;;;;;;4.57;3.58;;;;;;;;;;7332661;19;153550;-19
2022/05/15 10:45:49;;;;;;;9.43;3.63;;;;;;;;;;7332526;19;161795;-18
2022/05/15 10:48:45;;;;;;;4.72;3.60;;;;;;;;;;7333466;19;162407;-18
2022/05/15 10:51:22;;;;;;;3.95;3.47;;;;;;;;;;7330771;19;154082;-19
2022/05/15 10:57:26;;;;;;;4.78;3.22;;;;;;;;;;7333308;19;162055;-20
2022/05/15 11:00:03;;;;;;;5.20;3.72;;;;;;;;;;7332989;19;162582;-20
2022/05/15 11:03:10;;;;;;;3.95;3.55;;;;;;;;;;7333124;19;154559;-19
2022/05/15 11:05:55;;;;;;;5.05;3.75;;;;;;;;;;7332988;19;153550;-19
2022/05/15 11:08:40;;;;;;;6.15;4.03;;;;;;;;;;7332833;19;161803;-18
2022/05/15 11:11:24;;;;;;;4.28;3.38;;;;;;;;;;7331151;19;162340;-18
2022/05/15 11:13:58;;;;;;;5.85;3.92;;;;;;;;;;7333011;19;154230;-19
2022/05/15 11:16:39;;;;;;;6.30;3.50;;;;;;;;;;7331545;19;153883;-19
2022/05/15 11:19:27;;;;;;;5.47;3.88;;;;;;;;;;7332293;19;162000;-20
2022/05/15 11:22:04;;;;;;;4.40;3.35;;;;;;;;;;7332170;19;163117;-18
2022/05/15 11:24:43;;;;;;;4.82;3.70;;;;;;;;;;7332697;19;154116;-18
2022/05/15 11:27:21;;;;;;;5.68;3.75;;;;;;;;;;7332463;19;153716;-18
2022/05/15 11:29:55;;;;;;;6.15;3.90;;;;;;;;;;7331806;19;162065;-19
2022/05/15 11:32:42;;;;;;;4.57;3.42;;;;;;;;;;7329246;19;162428;-19
2022/05/15 11:35:24;;;;;;;5.95;3.72;;;;;;;;;;7332197;19;154530;-19
2022/05/15 11:38:05;;;;;;;4.93;3.40;;;;;;;;;;7331035;19;153570;-19
2022/05/15 11:40:39;;;;;;;5.15;3.50;;;;;;;;;;7331346;19;161812;-19
2022/05/15 11:43:39;;;;;;;4.65;3.28;;;;;;;;;;7335128;19;162490;-19
2022/05/15 11:46:12;;;;;;;5.15;3.50;;;;;;;;;;7333412;19;154033;-19
2022/05/15 11:48:58;;;;;;;3.70;3.40;;;;;;;;;;7329126;19;153557;-19
2022/05/15 11:51:34;;;;;;;5.03;3.65;;;;;;;;;;7330778;19;162064;-19
2022/05/15 11:54:07;;;;;;;5.10;3.38;;;;;;;;;;7335365;19;162453;-19
2022/05/15 11:56:42;;;;;;;9.18;3.97;;;;;;;;;;7332937;19;154069;-18
2022/05/15 11:59:26;;;;;;;4.72;3.03;;;;;;;;;;7334094;19;153245;-19
2022/05/15 12:02:00;;;;;;;6.60;3.25;;;;;;;;;;7333863;19;161817;-19
2022/05/15 12:04:57;;;;;;;4.47;3.05;;;;;;;;;;7335151;19;162590;-17
2022/05/15 12:07:53;;;;;;;5.05;3.35;;;;;;;;;;7334284;19;154124;-18
2022/05/15 12:10:57;;;;;;;4.60;3.20;;;;;;;;;;7331602;19;155121;-18
2022/05/15 12:13:42;;;;;;;4.70;2.72;;;;;;;;;;7332780;19;161852;-19
2022/05/15 12:16:52;;;;;;;5.63;3.33;;;;;;;;;;7335038;19;162839;-18
2022/05/15 12:19:27;;;;;;;7.15;3.40;;;;;;;;;;7333776;19;154559;-20
2022/05/15 12:22:02;;;;;;;5.38;3.42;;;;;;;;;;7332482;19;153679;-19
2022/05/15 12:24:37;;;;;;;4.40;3.25;;;;;;;;;;7334757;19;162319;-18
2022/05/15 12:27:25;;;;;;;4.43;3.08;;;;;;;;;;7331808;19;162585;-20
2022/05/15 12:30:15;;;;;;;9.55;3.20;;;;;;;;;;7334890;19;154325;-20
2022/05/15 12:32:53;;;;;;;3.63;2.70;;;;;;;;;;7329256;19;153576;-19
2022/05/15 12:35:27;;;;;;;4.22;3.40;;;;;;;;;;7334255;19;161990;-18
2022/05/15 12:38:01;;;;;;;5.93;3.63;;;;;;;;;;7334141;19;162430;-19
2022/05/15 12:40:34;;;;;;;4.90;3.10;;;;;;;;;;7332129;19;154075;-19
2022/05/15 12:43:27;;;;;;;3.67;2.85;;;;;;;;;;7332668;19;153523;-19
2022/05/15 12:46:00;;;;;;;6.15;2.80;;;;;;;;;;7332384;19;161799;-18
2022/05/15 12:48:38;;;;;;;5.55;2.80;;;;;;;;;;7332985;19;162691;-19
2022/05/15 12:51:13;;;;;;;3.63;2.85;;;;;;;;;;7332321;19;154120;-18
2022/05/15 12:53:47;;;;;;;3.72;2.78;;;;;;;;;;7333657;19;153571;-18
2022/05/15 12:56:20;;;;;;;4.03;2.58;;;;;;;;;;7331489;19;161905;-18
2022/05/15 12:58:54;;;;;;;7.90;2.83;;;;;;;;;;7333401;19;163186;-18
2022/05/15 13:01:29;;;;;;;4.18;2.90;;;;;;;;;;7332934;19;154166;-18
2022/05/15 13:04:06;;;;;;;3.53;2.78;;;;;;;;;;7333949;19;153511;-18
2022/05/15 13:06:46;;;;;;;4.75;2.85;;;;;;;;;;7330969;19;162022;-19
2022/05/15 13:09:23;;;;;;;6.53;3.05;;;;;;;;;;7330493;19;162650;-18
2022/05/15 13:11:58;;;;;;;2.60;2.40;;;;;;;;;;7329893;19;154163;-18
2022/05/15 13:14:33;;;;;;;6.15;3.10;;;;;;;;;;7332407;19;153853;-18
2022/05/15 13:17:05;;;;;;;6.07;3.25;;;;;;;;;;7330196;19;161789;-18
2022/05/15 13:19:44;;;;;;;4.80;3.30;;;;;;;;;;7332723;19;162384;-19
2022/05/15 13:22:20;;;;;;;7.10;3.67;;;;;;;;;;7333821;19;154236;-19
2022/05/15 13:24:57;;;;;;;7.47;3.72;;;;;;;;;;7329747;19;153769;-19
2022/05/15 13:27:30;;;;;;;4.15;3.30;;;;;;;;;;7331720;19;161915;-18
2022/05/15 13:30:01;;;;;;;7.93;3.13;;;;;;;;;;7331885;19;162391;-18
2022/05/15 13:32:33;;;;;;;7.10;3.15;;;;;;;;;;7330302;19;154078;-19
2022/05/15 13:35:09;;;;;;;3.53;3.20;;;;;;;;;;7331562;19;153615;-19
2022/05/15 13:37:43;;;;;;;9.38;3.60;;;;;;;;;;7329928;19;161575;-19
2022/05/15 13:43:28;;;;;;;5.47;2.85;;;;;;;;;;7331251;19;154384;-18
2022/05/15 13:46:02;;;;;;;4.68;3.13;;;;;;;;;;7331589;19;153558;-19
2022/05/15 13:48:56;;;;;;;5.47;3.15;;;;;;;;;;7329690;19;161941;-19
2022/05/15 13:51:42;;;;;;;5.95;3.47;;;;;;;;;;7330409;19;162482;-18
2022/05/15 13:54:16;;;;;;;5.50;3.10;;;;;;;;;;7332653;19;154067;-20
2022/05/15 13:56:51;;;;;;;3.58;3.10;;;;;;;;;;7329933;19;153585;-17
2022/05/15 13:59:35;;;;;;;3.83;3.40;;;;;;;;;;7329677;19;161877;-19
2022/05/15 14:02:10;;;;;;;4.32;3.40;;;;;;;;;;7332133;19;162738;-19
2022/05/15 14:04:44;;;;;;;3.90;2.90;;;;;;;;;;7329756;19;154112;-19
2022/05/15 14:07:31;;;;;;;3.80;3.10;;;;;;;;;;7330727;19;153534;-19
2022/05/15 14:10:18;;;;;;;3.92;2.70;;;;;;;;;;7331796;19;161913;-18
2022/05/15 14:12:52;;;;;;;5.88;2.65;;;;;;;;;;7328143;19;163063;-19
2022/05/15 14:15:36;;;;;;;3.83;2.60;;;;;;;;;;7330740;19;154097;-19
2022/05/15 14:18:10;;;;;;;5.03;2.67;;;;;;;;;;7332104;19;153489;-19
2022/05/15 14:20:45;;;;;;;4.68;3.20;;;;;;;;;;7329016;19;161913;-23
2022/05/15 14:23:23;;;;;;;4.70;3.13;;;;;;;;;;7329700;19;162483;-19
2022/05/15 14:25:55;;;;;;;3.28;2.63;;;;;;;;;;7331366;19;154143;-19
2022/05/15 14:28:27;;;;;;;;;;;;;;;;;;7327238;19;153572;-19
2022/05/15 14:30:58;;;;;;;5.00;2.92;;;;;;;;;;7327646;19;161892;-19
2022/05/15 14:33:31;;;;;;;2.97;2.63;;;;;;;;;;7326802;19;162489;-19
2022/05/15 14:36:06;;;;;;;3.33;2.63;;;;;;;;;;7329708;19;153989;-19
2022/05/15 14:38:40;;;;;;;3.50;2.55;;;;;;;;;;7326864;19;153599;-19
2022/05/15 14:41:12;;;;;;;4.07;2.60;;;;;;;;;;7327667;19;161813;-19
2022/05/15 14:43:44;;;;;;;4.00;2.70;;;;;;;;;;7328556;19;162712;-18
2022/05/15 14:46:18;;;;;;;4.90;2.97;;;;;;;;;;7328002;19;154077;-18
2022/05/15 14:48:49;;;;;;;3.63;2.67;;;;;;;;;;7327352;19;153459;-18
2022/05/15 14:51:24;;;;;;;4.80;2.70;;;;;;;;;;7333487;19;161552;-19
2022/05/15 14:54:00;;;;;;;3.22;2.35;;;;;;;;;;7332379;19;162436;-18
2022/05/15 14:56:32;;;;;;;3.33;2.45;;;;;;;;;;7335372;19;154205;-19
2022/05/15 14:59:11;;;;;;;3.73;3.00;;;;;;;;;;7335175;19;153733;-18
2022/05/15 15:01:43;;;;;;;4.32;2.55;;;;;;;;;;7334953;19;162037;-18
2022/05/15 15:04:16;;;;;;;5.35;3.13;;;;;;;;;;7334645;19;162781;-18
2022/05/15 15:06:48;;;;;;;5.10;2.60;;;;;;;;;;7333005;19;154065;-18
2022/05/15 15:09:22;;;;;;;3.80;3.30;;;;;;;;;;7334344;19;153580;-19
2022/05/15 15:11:55;;;;;;;4.82;2.88;;;;;;;;;;7334968;19;161787;-18
2022/05/15 15:14:27;;;;;;;5.60;3.15;;;;;;;;;;7330148;19;162369;-26
2022/05/15 15:17:00;;;;;;;6.00;3.67;;;;;;;;;;7333282;19;154170;-19
2022/05/15 15:19:34;;;;;;;7.13;3.13;;;;;;;;;;7334526;19;153579;-19
2022/05/15 15:22:05;;;;;;;6.20;3.05;;;;;;;;;;7335016;19;162028;-18
2022/05/15 15:24:39;;;;;;;5.43;3.70;;;;;;;;;;7332246;19;162337;-18
2022/05/15 15:27:11;;;;;;;5.55;3.10;;;;;;;;;;7333555;19;154023;-18
2022/05/15 15:29:42;;;;;;;3.28;2.78;;;;;;;;;;7334522;19;153576;-19
2022/05/15 15:32:14;;;;;;;4.95;2.72;;;;;;;;;;7332643;19;161928;-18
2022/05/15 15:34:46;;;;;;;5.43;3.15;;;;;;;;;;7331975;19;162520;-18
2022/05/15 15:40:03;;;;;;;4.18;2.85;;;;;;;;;;7334363;19;153535;-18
2022/05/15 15:42:35;;;;;;;3.78;3.13;;;;;;;;;;7326167;19;161883;-19
2022/05/15 15:45:08;;;;;;;3.30;3.00;;;;;;;;;;7331579;19;162503;-19